Terminal Aerodrome Forecast
Issued by NWS

Home | Current Version | Previous Version | Text Only | Print | Product List | Glossary On
Versions: 1 2 3 4 5 6 7 8 9 10 11 12 13 14 15 16 17
000
FTUS42 KMLB 261141
TAFFPR
TAF
KFPR 261141Z 2612/2712 13010KT P6SM VCSH SCT025 SCT050 BKN250
      TEMPO 2612/2614 -SHRA BKN025 OVC050
     FM261500 11013KT P6SM SCT030 BKN250
     FM270000 13008KT P6SM VCSH SCT025=

USA.gov is the U.S. government's official web portal to all federal, state and local government web resources and services.